createdAt,value
2023-05-04T00:01:04.560Z,4.36
2023-05-04T00:06:07.845Z,4.30
2023-05-04T00:11:10.721Z,4.24
2023-05-04T00:16:13.752Z,4.17
2023-05-04T00:21:16.852Z,4.10
2023-05-04T00:26:19.760Z,4.05
2023-05-04T00:31:22.733Z,4.00
2023-05-04T00:36:25.822Z,3.95
2023-05-04T00:41:28.644Z,3.93
2023-05-04T00:46:31.942Z,3.92
2023-05-04T00:51:34.800Z,3.94
2023-05-04T00:56:42.323Z,3.89
2023-05-04T01:01:45.246Z,3.82
2023-05-04T01:07:04.504Z,3.79
2023-05-04T01:12:08.701Z,3.71
2023-05-04T01:17:11.724Z,3.64
2023-05-04T01:22:14.897Z,3.62
2023-05-04T01:27:36.351Z,3.58
2023-05-04T01:32:39.849Z,3.50
2023-05-04T01:37:42.838Z,3.40
2023-05-04T01:42:45.683Z,3.30
2023-05-04T01:47:49.125Z,3.24
2023-05-04T01:52:52.096Z,3.18
2023-05-04T01:57:55.051Z,3.14
2023-05-04T02:02:58.093Z,3.07
2023-05-04T02:08:00.970Z,3.02
2023-05-04T02:13:03.970Z,3.04
2023-05-04T02:18:07.213Z,3.03
2023-05-04T02:23:10.125Z,3.01
2023-05-04T02:28:13.081Z,2.93
2023-05-04T02:33:15.945Z,2.86
2023-05-04T02:38:19.214Z,2.77
2023-05-04T02:43:22.077Z,2.72
2023-05-04T02:48:25.143Z,2.70
2023-05-04T02:53:28.021Z,2.66
2023-05-04T02:58:31.053Z,2.62
2023-05-04T03:03:34.016Z,2.59
2023-05-04T03:08:36.925Z,2.55
2023-05-04T03:13:39.808Z,2.53
2023-05-04T03:24:05.129Z,2.48
2023-05-04T03:29:08.038Z,2.48
2023-05-04T03:34:12.812Z,2.51
2023-05-04T03:39:19.218Z,2.54
2023-05-04T03:44:23.293Z,2.57
2023-05-04T03:49:26.724Z,2.62
2023-05-04T03:54:29.691Z,2.66
2023-05-04T03:59:32.683Z,2.72
2023-05-04T04:04:35.702Z,2.83
2023-05-04T04:09:38.965Z,2.98
2023-05-04T04:14:42.329Z,3.13
2023-05-04T04:19:45.337Z,3.26
2023-05-04T04:24:48.142Z,3.42
2023-05-04T04:29:51.168Z,3.58
2023-05-04T04:34:54.142Z,3.74
2023-05-04T04:39:57.178Z,3.93
2023-05-04T04:45:00.633Z,4.11
2023-05-04T04:50:05.525Z,4.28
2023-05-04T04:55:09.313Z,4.47
2023-05-04T05:00:17.428Z,4.67
2023-05-04T05:05:20.394Z,4.89
2023-05-04T05:10:23.428Z,5.08
2023-05-04T05:15:26.416Z,5.26
2023-05-04T05:20:29.571Z,5.44
2023-05-04T05:25:32.571Z,5.66
2023-05-04T05:30:35.663Z,5.88
2023-05-04T05:35:38.469Z,6.06
2023-05-04T05:40:41.335Z,6.29
2023-05-04T05:45:44.648Z,6.53
2023-05-04T05:50:47.997Z,6.78
2023-05-04T05:55:50.861Z,7.03
2023-05-04T06:00:53.999Z,7.27
2023-05-04T06:05:56.896Z,7.50
2023-05-04T06:10:59.840Z,7.71
2023-05-04T06:16:03.024Z,7.92
2023-05-04T06:21:05.916Z,8.18
2023-05-04T06:26:08.835Z,8.44
2023-05-04T06:31:12.170Z,8.69
2023-05-04T06:36:15.200Z,8.89
2023-05-04T06:41:18.200Z,9.12
2023-05-04T06:46:21.345Z,9.31
2023-05-04T06:51:24.693Z,9.52
2023-05-04T06:56:27.608Z,9.71
2023-05-04T07:01:30.727Z,9.87
2023-05-04T07:06:33.830Z,10.20
2023-05-04T07:11:37.025Z,10.40
2023-05-04T07:16:40.102Z,10.53
2023-05-04T07:21:43.247Z,10.64
2023-05-04T07:26:46.357Z,10.87
2023-05-04T07:31:49.286Z,11.09
2023-05-04T07:36:52.189Z,11.21
2023-05-04T07:41:55.128Z,11.39
2023-05-04T07:46:59.334Z,11.55
2023-05-04T07:52:04.193Z,11.69
2023-05-04T07:57:07.284Z,11.88
2023-05-04T08:02:10.391Z,11.98
2023-05-04T08:07:16.575Z,12.12
2023-05-04T08:12:19.452Z,12.26
2023-05-04T08:17:22.385Z,12.41
2023-05-04T08:22:25.416Z,12.58
2023-05-04T08:27:28.233Z,12.73
2023-05-04T08:32:33.281Z,12.93
2023-05-04T08:37:36.858Z,13.12
2023-05-04T08:42:40.526Z,13.29
2023-05-04T08:47:43.762Z,13.49
2023-05-04T08:52:47.527Z,13.78
2023-05-04T08:57:51.175Z,13.97
2023-05-04T09:02:54.781Z,14.01
2023-05-04T09:07:58.507Z,13.99
2023-05-04T09:13:01.573Z,13.98
2023-05-04T09:18:06.918Z,14.22
2023-05-04T09:23:11.592Z,14.46
2023-05-04T09:28:15.954Z,14.77
2023-05-04T09:33:27.377Z,15.00
2023-05-04T09:38:31.736Z,15.21
2023-05-04T09:43:42.927Z,15.42
2023-05-04T09:48:53.696Z,16.30
2023-05-04T09:53:58.322Z,17.24
2023-05-04T09:59:01.206Z,18.15
2023-05-04T10:04:04.425Z,18.98
2023-05-04T10:09:07.447Z,19.66
2023-05-04T10:14:10.696Z,20.67
2023-05-04T10:19:48.176Z,21.87
2023-05-04T10:25:01.137Z,22.55
2023-05-04T10:30:05.035Z,22.93
2023-05-04T10:35:09.363Z,23.43
2023-05-04T10:40:12.602Z,24.03
2023-05-04T10:45:15.483Z,24.28
2023-05-04T10:50:18.464Z,24.21
2023-05-04T10:55:21.936Z,24.95
2023-05-04T11:00:37.883Z,25.39
2023-05-04T11:05:45.600Z,25.92
2023-05-04T11:10:59.766Z,26.84
2023-05-04T11:16:02.909Z,27.12
2023-05-04T11:21:05.890Z,27.61
2023-05-04T11:26:09.464Z,28.19
2023-05-04T11:31:19.186Z,28.73
2023-05-04T11:36:22.594Z,28.75
2023-05-04T11:41:29.742Z,30.15
2023-05-04T11:46:33.322Z,31.90
2023-05-04T11:51:36.162Z,32.16
2023-05-04T11:56:42.645Z,32.91
2023-05-04T12:01:45.534Z,33.87
2023-05-04T12:06:48.444Z,33.17
2023-05-04T12:11:57.617Z,32.69
2023-05-04T12:17:02.993Z,32.77
2023-05-04T12:22:06.146Z,33.03
2023-05-04T12:27:15.693Z,33.41
2023-05-04T12:32:19.374Z,33.37
2023-05-04T12:37:24.500Z,32.29
2023-05-04T12:42:28.807Z,32.19
2023-05-04T12:47:31.716Z,32.12
2023-05-04T12:52:34.757Z,31.09
2023-05-04T12:57:37.894Z,32.30
2023-05-04T13:02:41.248Z,33.14
2023-05-04T13:07:44.341Z,33.49
2023-05-04T13:12:48.573Z,34.41
2023-05-04T13:17:52.335Z,35.32
2023-05-04T13:22:58.242Z,36.43
2023-05-04T13:28:02.014Z,37.10
2023-05-04T13:33:13.333Z,36.51
2023-05-04T13:38:24.639Z,35.72
2023-05-04T13:43:28.311Z,37.27
2023-05-04T13:48:33.774Z,37.66
2023-05-04T13:53:37.355Z,37.71
2023-05-04T13:58:40.406Z,37.08
2023-05-04T14:03:43.403Z,37.42
2023-05-04T14:08:46.702Z,37.46
2023-05-04T14:13:49.585Z,38.74
2023-05-04T14:18:52.495Z,39.42
2023-05-04T14:23:55.418Z,39.24
2023-05-04T14:28:58.421Z,38.75
2023-05-04T14:34:01.432Z,39.71
2023-05-04T14:39:04.494Z,38.87
2023-05-04T14:44:07.522Z,36.38
2023-05-04T14:49:11.248Z,31.75
2023-05-04T14:54:19.638Z,28.33
2023-05-04T14:59:22.668Z,26.50
2023-05-04T15:04:25.710Z,25.85
2023-05-04T15:09:29.151Z,24.64
2023-05-04T15:14:32.097Z,23.82
2023-05-04T15:19:39.037Z,23.18
2023-05-04T15:24:41.955Z,22.79
2023-05-04T15:29:44.816Z,22.35
2023-05-04T15:35:00.983Z,22.28
2023-05-04T15:40:08.741Z,21.59
2023-05-04T15:45:12.102Z,20.30
2023-05-04T15:50:14.995Z,19.86
2023-05-04T15:55:26.078Z,19.84
2023-05-04T16:00:29.728Z,19.89
2023-05-04T16:05:32.599Z,19.89
2023-05-04T16:10:36.406Z,19.80
2023-05-04T16:15:39.528Z,19.66
2023-05-04T16:20:42.454Z,19.43
2023-05-04T16:25:45.365Z,19.21
2023-05-04T16:30:51.425Z,18.94
2023-05-04T16:35:54.407Z,18.66
2023-05-04T16:40:58.130Z,18.38
2023-05-04T16:46:01.334Z,18.13
2023-05-04T16:51:08.293Z,17.89
2023-05-04T16:56:18.369Z,17.66
2023-05-04T17:01:21.211Z,17.46
2023-05-04T17:06:24.572Z,17.28
2023-05-04T17:11:27.510Z,17.04
2023-05-04T17:16:30.717Z,16.78
2023-05-04T17:21:33.910Z,16.50
2023-05-04T17:26:36.799Z,16.18
2023-05-04T17:31:39.824Z,15.87
2023-05-04T17:36:42.746Z,15.57
2023-05-04T17:41:49.082Z,15.30
2023-05-04T17:46:52.437Z,15.12
2023-05-04T17:51:56.569Z,14.90
2023-05-04T17:56:59.405Z,14.67
2023-05-04T18:02:03.343Z,14.42
2023-05-04T18:07:06.271Z,14.18
2023-05-04T18:12:09.427Z,13.94
2023-05-04T18:17:12.249Z,13.70
2023-05-04T18:22:15.410Z,13.49
2023-05-04T18:27:18.367Z,13.29
2023-05-04T18:32:21.289Z,13.02
2023-05-04T18:37:25.047Z,12.76
2023-05-04T18:42:27.895Z,12.54
2023-05-04T18:47:30.784Z,12.35
2023-05-04T18:52:33.906Z,12.17
2023-05-04T18:57:37.047Z,11.99
2023-05-04T19:02:40.133Z,11.86
2023-05-04T19:07:43.100Z,11.70
2023-05-04T19:12:45.997Z,11.54
2023-05-04T19:17:48.937Z,11.41
2023-05-04T19:22:51.868Z,11.24
2023-05-04T19:27:54.786Z,11.11
2023-05-04T19:32:57.669Z,10.97
2023-05-04T19:38:01.804Z,10.81
2023-05-04T19:43:05.686Z,10.67
2023-05-04T19:48:08.559Z,10.54
2023-05-04T19:53:11.484Z,10.45
2023-05-04T19:58:14.601Z,10.40
2023-05-04T20:03:18.673Z,10.33
2023-05-04T20:08:21.817Z,10.25
2023-05-04T20:13:25.725Z,10.18
2023-05-04T20:18:28.749Z,10.13
2023-05-04T20:23:31.644Z,10.06
2023-05-04T20:28:34.513Z,10.00
2023-05-04T20:33:37.625Z,9.95
2023-05-04T20:38:41.029Z,9.87
2023-05-04T20:43:43.907Z,9.79
2023-05-04T20:48:46.710Z,9.72
2023-05-04T20:53:49.673Z,9.64
2023-05-04T20:58:52.808Z,9.56
2023-05-04T21:03:56.499Z,9.46
2023-05-04T21:08:59.689Z,9.37
2023-05-04T21:14:03.341Z,9.25
2023-05-04T21:19:06.353Z,9.13
2023-05-04T21:24:13.394Z,8.98
2023-05-04T21:29:16.367Z,8.85
2023-05-04T21:34:19.244Z,8.75
2023-05-04T21:39:22.340Z,8.63
2023-05-04T21:44:25.398Z,8.54
2023-05-04T21:49:28.221Z,8.46
2023-05-04T21:54:31.342Z,8.38
2023-05-04T21:59:34.168Z,8.31
2023-05-04T22:04:37.252Z,8.23
2023-05-04T22:09:40.061Z,8.17
2023-05-04T22:14:42.947Z,8.12
2023-05-04T22:19:46.006Z,8.10
2023-05-04T22:24:48.981Z,8.07
2023-05-04T22:29:52.332Z,8.04
2023-05-04T22:34:55.222Z,8.01
2023-05-04T22:39:58.080Z,7.99
2023-05-04T22:45:01.252Z,7.94
2023-05-04T22:50:05.180Z,7.91
2023-05-04T22:55:08.963Z,7.90
2023-05-04T23:00:13.628Z,7.87
2023-05-04T23:05:16.677Z,7.87
2023-05-04T23:10:19.927Z,7.86
2023-05-04T23:15:25.159Z,7.84
2023-05-04T23:20:28.027Z,7.83
2023-05-04T23:25:30.893Z,7.83
2023-05-04T23:30:33.923Z,7.84
2023-05-04T23:35:36.916Z,7.84
2023-05-04T23:40:39.816Z,7.85
2023-05-04T23:45:42.813Z,7.84
2023-05-04T23:50:57.517Z,7.85
2023-05-04T23:56:04.868Z,7.86
